Time;durP1;ratioP1;P1;durP2;ratioP2;P2;SDS_P1;SDS_P2;PMS_P1;PMS_P2;Temp;Humidity;BMP_temperature;BMP_pressure;BME280_temperature;BME280_humidity;BME280_pressure;Samples;Min_cycle;Max_cycle;Signal;HPM_P1;HPM_P2
2022/08/08 00:01:11;;;;;;;1.35;1.25;;;;;;;15.08;61.51;98648.69;4907059;29;20090;-73
2022/08/08 00:04:04;;;;;;;1.58;1.48;;;;;;;15.09;61.21;98641.56;4911485;29;20044;-74
2022/08/08 00:06:46;;;;;;;2.10;1.30;;;;;;;15.04;60.04;98650.06;4899627;29;20075;-73
2022/08/08 00:09:27;;;;;;;3.95;1.10;;;;;;;15.19;58.73;98658.09;4923417;29;20083;-74
2022/08/08 00:12:03;;;;;;;1.73;1.38;;;;;;;15.26;56.41;98669.72;4902223;29;20104;-74
2022/08/08 00:14:47;;;;;;;1.95;1.42;;;;;;;15.18;56.99;98663.63;4906017;29;20056;-73
2022/08/08 00:17:45;;;;;;;2.10;1.48;;;;;;;14.92;59.56;98660.28;4902967;29;20047;-73
2022/08/08 00:20:43;;;;;;;;;;;;;;;14.76;59.88;98654.25;4904587;29;20102;-73
2022/08/08 00:23:22;;;;;;;3.50;1.60;;;;;;;14.58;59.33;98657.16;4903895;29;20657;-73
2022/08/08 00:25:56;;;;;;;1.25;1.15;;;;;;;14.49;61.45;98659.84;4886088;29;20178;-73
2022/08/08 00:28:28;;;;;;;4.47;1.80;;;;;;;14.65;58.06;98660.81;4872517;29;20577;-74
2022/08/08 00:31:24;;;;;;;2.55;1.52;;;;;;;14.66;59.77;98662.44;4886829;29;20080;-73
2022/08/08 00:37:28;;;;;;;3.67;1.50;;;;;;;14.44;61.00;98662.19;4897078;29;20522;-73
2022/08/08 00:40:27;;;;;;;1.83;1.67;;;;;;;14.34;61.58;98661.56;4922248;29;20366;-73
2022/08/08 00:43:47;;;;;;;2.45;1.60;;;;;;;14.36;61.58;98656.91;4924106;29;20054;-74
2022/08/08 00:46:33;;;;;;;3.30;1.48;;;;;;;14.44;60.60;98656.88;4919538;29;20048;-74
2022/08/08 00:49:25;;;;;;;4.65;1.48;;;;;;;14.75;59.76;98658.75;4922336;29;20091;-74
2022/08/08 00:52:17;;;;;;;1.75;1.45;;;;;;;14.70;60.27;98659.28;4921125;29;20035;-74
2022/08/08 00:55:08;;;;;;;2.15;1.58;;;;;;;14.73;62.06;98660.75;4896837;29;20055;-73
2022/08/08 00:57:55;;;;;;;1.80;1.35;;;;;;;14.68;59.61;98663.09;4902489;29;20072;-74
2022/08/08 01:00:30;;;;;;;1.70;1.42;;;;;;;14.58;62.19;98670.47;4899614;29;20378;-73
2022/08/08 01:03:33;;;;;;;6.60;1.60;;;;;;;14.55;61.20;98668.16;4910276;29;20143;-73
2022/08/08 01:06:36;;;;;;;1.58;1.48;;;;;;;14.45;63.11;98671.81;4900464;29;20044;-73
2022/08/08 01:09:22;;;;;;;1.92;1.50;;;;;;;14.39;63.21;98677.84;4908708;29;20050;-74
2022/08/08 01:12:53;;;;;;;1.77;1.67;;;;;;;14.35;62.41;98668.56;4909627;29;20055;-73
2022/08/08 01:15:47;;;;;;;2.15;1.63;;;;;;;14.37;61.40;98671.88;4901178;29;20074;-73
2022/08/08 01:18:58;;;;;;;1.75;1.65;;;;;;;14.49;61.52;98675.00;4909494;29;20048;-73
2022/08/08 01:21:59;;;;;;;2.65;1.63;;;;;;;14.56;59.36;98681.31;4910476;29;20044;-73
2022/08/08 01:24:56;;;;;;;3.38;1.80;;;;;;;14.59;60.99;98677.47;4898616;29;20170;-73
2022/08/08 01:27:33;;;;;;;3.65;1.85;;;;;;;14.59;59.37;98682.81;4894028;29;20103;-73
2022/08/08 01:30:35;;;;;;;3.22;1.55;;;;;;;14.42;59.37;98676.69;4923166;29;20537;-73
2022/08/08 01:33:36;;;;;;;4.32;1.65;;;;;;;14.30;61.50;98678.91;4885947;29;20086;-73
2022/08/08 01:36:35;;;;;;;1.67;1.33;;;;;;;14.17;60.47;98674.13;4906205;29;20404;-73
2022/08/08 01:39:21;;;;;;;6.38;1.73;;;;;;;14.14;60.75;98673.63;4904229;29;20044;-75
2022/08/08 01:42:18;;;;;;;2.25;1.60;;;;;;;14.16;61.49;98666.28;4890032;29;20044;-75
2022/08/08 01:45:01;;;;;;;1.67;1.58;;;;;;;14.11;61.83;98671.28;4902064;29;20036;-74
2022/08/08 01:47:53;;;;;;;2.28;1.80;;;;;;;13.95;64.33;98677.50;4906634;29;20566;-73
2022/08/08 01:51:18;;;;;;;2.25;1.98;;;;;;;13.94;62.58;98682.00;4897812;29;20036;-73
2022/08/08 01:54:13;;;;;;;3.55;2.15;;;;;;;13.92;62.19;98683.97;4899478;29;20103;-73
2022/08/08 01:57:18;;;;;;;2.05;1.70;;;;;;;13.94;62.14;98686.47;4922671;29;20048;-73
2022/08/08 02:00:00;;;;;;;1.65;1.45;;;;;;;13.90;62.66;98685.16;4903129;29;20058;-75
2022/08/08 02:03:12;;;;;;;3.92;1.75;;;;;;;13.87;62.42;98693.47;4900670;29;20051;-74
2022/08/08 02:06:12;;;;;;;1.80;1.70;;;;;;;13.82;63.35;98686.00;4913172;29;20362;-74
2022/08/08 02:09:16;;;;;;;2.33;1.83;;;;;;;13.67;64.99;98685.03;4896950;29;20454;-74
2022/08/08 02:11:47;;;;;;;1.63;1.48;;;;;;;13.67;64.44;98682.38;4888905;29;20051;-74
2022/08/08 02:14:39;;;;;;;2.40;2.00;;;;;;;13.58;65.96;98677.03;4913394;29;20066;-73
2022/08/08 02:17:34;;;;;;;1.67;1.50;;;;;;;13.55;64.15;98668.59;4912333;29;20048;-75
2022/08/08 02:20:29;;;;;;;2.42;1.73;;;;;;;13.59;63.67;98673.41;4914337;29;20043;-73
2022/08/08 02:23:30;;;;;;;2.42;1.52;;;;;;;13.97;65.04;98664.84;4927450;29;20043;-74
2022/08/08 02:26:02;;;;;;;2.90;1.58;;;;;;;13.72;63.06;98661.44;4902146;29;20048;-73
2022/08/08 02:29:19;;;;;;;1.60;1.50;;;;;;;13.45;63.56;98660.78;4893252;29;20071;-77
2022/08/08 02:31:52;;;;;;;3.97;1.88;;;;;;;13.35;64.82;98663.63;4853739;29;20056;-76
2022/08/08 02:34:35;;;;;;;1.58;1.48;;;;;;;13.39;65.40;98661.44;4858998;29;20408;-73
2022/08/08 02:37:12;;;;;;;1.90;1.60;;;;;;;13.29;64.48;98668.75;4898181;29;20446;-76
2022/08/08 02:40:11;;;;;;;1.90;1.80;;;;;;;13.25;66.09;98667.41;4912709;29;20481;-74
2022/08/08 02:43:02;;;;;;;1.60;1.50;;;;;;;13.23;65.00;98667.56;4906622;29;20067;-74
2022/08/08 02:46:05;;;;;;;6.63;2.20;;;;;;;13.26;65.58;98669.06;4921784;29;20044;-73
2022/08/08 02:49:04;;;;;;;2.97;1.65;;;;;;;13.15;65.25;98673.69;4890452;29;20091;-74
2022/08/08 02:52:06;;;;;;;2.35;1.60;;;;;;;13.18;65.35;98678.69;4910250;29;20103;-74
2022/08/08 02:55:15;;;;;;;1.80;1.40;;;;;;;13.30;64.53;98675.75;4917217;29;20135;-74
2022/08/08 02:58:10;;;;;;;2.92;1.70;;;;;;;13.21;65.19;98680.16;4910055;29;20429;-74
2022/08/08 03:00:57;;;;;;;;;;;;;;;13.16;65.46;98678.03;4912917;29;20039;-74
2022/08/08 03:03:46;;;;;;;1.65;1.40;;;;;;;13.20;65.84;98681.19;4927489;29;19927;-74
2022/08/08 03:06:39;;;;;;;1.42;1.33;;;;;;;13.13;66.17;98683.66;4920869;29;20042;-74
2022/08/08 03:09:41;;;;;;;2.45;1.45;;;;;;;13.13;65.90;98683.66;4911071;29;20497;-74
2022/08/08 03:12:29;;;;;;;1.75;1.65;;;;;;;13.14;66.59;98695.97;4926234;29;20131;-76
2022/08/08 03:15:15;;;;;;;1.90;1.58;;;;;;;13.12;66.72;98692.63;4907518;29;20044;-74
2022/08/08 03:18:07;;;;;;;2.60;1.95;;;;;;;13.07;66.93;98696.78;4931317;29;20099;-74
2022/08/08 03:20:51;;;;;;;2.05;1.85;;;;;;;13.03;66.88;98698.91;4896493;29;20056;-74
2022/08/08 03:23:22;;;;;;;1.95;1.80;;;;;;;13.05;66.44;98698.75;4921213;29;20040;-75
2022/08/08 03:25:56;;;;;;;2.13;1.90;;;;;;;13.07;65.97;98707.41;4914873;29;20071;-74
2022/08/08 03:28:43;;;;;;;3.60;1.92;;;;;;;13.07;66.31;98699.44;4901895;29;20418;-74
2022/08/08 03:34:17;;;;;;;2.67;1.80;;;;;;;12.99;66.92;98697.59;4926938;29;20044;-76
2022/08/08 03:36:44;;;;;;;2.03;1.63;;;;;;;12.92;67.91;98699.22;4929560;29;20119;-74
2022/08/08 03:39:13;;;;;;;2.08;1.88;;;;;;;12.90;67.39;98698.53;4910134;29;20043;-76
2022/08/08 03:41:44;;;;;;;1.88;1.77;;;;;;;12.85;66.68;98698.19;4893749;29;20079;-76
2022/08/08 03:44:36;;;;;;;1.75;1.63;;;;;;;12.92;67.20;98704.53;4895260;29;20103;-76
2022/08/08 03:47:07;;;;;;;1.70;1.60;;;;;;;12.95;68.18;98707.72;4914732;29;20557;-77
2022/08/08 03:49:48;;;;;;;3.67;1.75;;;;;;;12.95;67.28;98706.84;4916584;29;20052;-77
2022/08/08 03:52:33;;;;;;;3.42;2.13;;;;;;;12.92;66.19;98709.84;4891801;29;20040;-76
2022/08/08 03:55:09;;;;;;;1.95;1.80;;;;;;;12.91;66.10;98716.16;4910756;29;20067;-77
2022/08/08 03:57:56;;;;;;;2.58;1.52;;;;;;;12.84;65.71;98715.97;4909764;29;20059;-76
2022/08/08 04:00:51;;;;;;;1.83;1.73;;;;;;;12.87;65.40;98717.47;4906320;29;20466;-75
2022/08/08 04:03:38;;;;;;;2.60;2.13;;;;;;;12.77;66.31;98714.13;4912903;29;20118;-75
2022/08/08 04:06:26;;;;;;;1.92;1.83;;;;;;;12.76;66.76;98723.09;4895055;29;20035;-76
2022/08/08 04:08:58;;;;;;;7.68;2.13;;;;;;;12.72;67.70;98722.59;4889755;29;20052;-76
2022/08/08 04:11:38;;;;;;;3.42;2.10;;;;;;;12.70;67.53;98724.56;4901481;29;20443;-76
2022/08/08 04:14:29;;;;;;;2.20;2.00;;;;;;;12.67;66.83;98720.41;4903745;29;20048;-76
2022/08/08 04:17:02;;;;;;;2.03;1.67;;;;;;;12.66;66.51;98732.00;4913797;29;20052;-76
2022/08/08 04:19:32;;;;;;;2.72;2.10;;;;;;;12.67;67.29;98725.72;4888993;29;20051;-75
2022/08/08 04:22:03;;;;;;;2.45;2.22;;;;;;;12.77;68.34;98733.56;4912558;29;20071;-76
2022/08/08 04:24:35;;;;;;;3.13;2.03;;;;;;;12.82;68.03;98733.03;4891664;29;20051;-76
2022/08/08 04:27:03;;;;;;;3.03;2.10;;;;;;;12.86;67.41;98745.03;4904786;29;20051;-76
2022/08/08 04:29:36;;;;;;;;;;;;;;;12.87;66.53;98747.50;4914460;29;20059;-75
2022/08/08 04:32:08;;;;;;;3.42;2.17;;;;;;;12.83;67.53;98748.00;4888235;29;20431;-75
2022/08/08 04:34:37;;;;;;;2.45;2.13;;;;;;;12.79;66.90;98742.16;4902987;29;20553;-76
2022/08/08 04:37:23;;;;;;;2.15;1.92;;;;;;;12.80;67.65;98748.34;4907642;29;20051;-76
2022/08/08 04:39:59;;;;;;;3.50;2.08;;;;;;;12.86;67.69;98751.16;4888814;29;20048;-76
2022/08/08 04:42:36;;;;;;;2.63;2.13;;;;;;;12.94;68.26;98748.53;4911249;29;20526;-76
2022/08/08 04:45:24;;;;;;;2.33;2.13;;;;;;;13.00;68.61;98760.31;4905348;29;20179;-76
2022/08/08 04:47:57;;;;;;;5.55;2.30;;;;;;;13.03;67.94;98759.16;4891944;29;20058;-76
2022/08/08 04:50:26;;;;;;;5.15;2.17;;;;;;;13.12;67.23;98764.34;4911681;29;20051;-76
2022/08/08 04:53:04;;;;;;;3.67;2.45;;;;;;;13.24;66.76;98772.81;4897081;29;20075;-75
2022/08/08 04:55:51;;;;;;;2.42;2.00;;;;;;;13.49;66.45;98776.41;4885456;29;20052;-76
2022/08/08 04:58:25;;;;;;;2.28;1.70;;;;;;;13.69;66.59;98773.41;4912366;29;20594;-75
2022/08/08 05:00:52;;;;;;;4.38;2.35;;;;;;;13.68;65.02;98777.09;4895622;29;20071;-75
2022/08/08 05:03:19;;;;;;;8.45;2.72;;;;;;;13.58;64.85;98778.06;4892479;29;20044;-76
2022/08/08 05:06:06;;;;;;;2.85;2.40;;;;;;;13.59;66.06;98781.56;4902673;29;20132;-76
2022/08/08 05:08:41;;;;;;;5.43;1.95;;;;;;;13.60;65.51;98785.88;4902248;29;20047;-75
2022/08/08 05:11:12;;;;;;;4.03;1.85;;;;;;;13.65;65.95;98782.75;4889243;29;20099;-76
2022/08/08 05:13:51;;;;;;;2.47;2.10;;;;;;;13.69;66.84;98781.38;4888651;29;20103;-75
2022/08/08 05:16:31;;;;;;;3.25;2.08;;;;;;;13.77;64.78;98781.38;4897272;29;20059;-74
2022/08/08 05:19:20;;;;;;;2.28;2.08;;;;;;;13.69;65.14;98789.38;4882429;29;20039;-75
2022/08/08 05:22:09;;;;;;;4.15;2.10;;;;;;;13.76;65.38;98788.53;4898524;29;20048;-74
2022/08/08 05:24:40;;;;;;;;;;;;;;;13.80;63.93;98789.88;4902169;29;20052;-75
2022/08/08 05:27:07;;;;;;;4.25;1.80;;;;;;;13.75;64.31;98794.03;4905586;29;20341;-74
2022/08/08 05:29:36;;;;;;;3.88;2.35;;;;;;;13.79;64.76;98801.50;4890631;29;20056;-74
2022/08/08 05:32:08;;;;;;;2.65;2.30;;;;;;;13.80;64.34;98792.53;4908316;29;20063;-74
2022/08/08 05:34:49;;;;;;;4.50;2.13;;;;;;;13.87;63.60;98802.50;4907787;29;20051;-75
2022/08/08 05:37:24;;;;;;;5.68;2.50;;;;;;;13.97;64.12;98801.34;4889979;29;20100;-73
2022/08/08 05:40:13;;;;;;;2.20;2.00;;;;;;;14.20;63.05;98798.00;4890239;29;20526;-75
2022/08/08 05:42:50;;;;;;;3.25;2.60;;;;;;;14.34;63.24;98799.16;4919356;29;20048;-74
2022/08/08 05:45:22;;;;;;;4.32;2.45;;;;;;;14.49;62.80;98798.28;4890521;29;20048;-76
2022/08/08 05:48:03;;;;;;;3.20;2.30;;;;;;;14.61;61.86;98808.59;4913358;29;20493;-75
2022/08/08 05:50:35;;;;;;;3.17;2.13;;;;;;;14.75;61.43;98801.75;4914190;29;20075;-75
2022/08/08 05:53:05;;;;;;;3.13;2.08;;;;;;;14.80;61.68;98794.91;4912364;29;20510;-74
2022/08/08 05:55:55;;;;;;;2.30;1.63;;;;;;;14.96;62.55;98793.16;4902277;29;20524;-74
2022/08/08 05:58:43;;;;;;;2.15;1.80;;;;;;;15.22;61.26;98806.19;4912473;29;20048;-75
2022/08/08 06:01:26;;;;;;;4.45;2.00;;;;;;;15.26;60.53;98803.00;4892388;29;20047;-75
2022/08/08 06:04:13;;;;;;;2.40;2.10;;;;;;;15.39;59.97;98793.59;4892363;29;20048;-75
2022/08/08 06:06:54;;;;;;;3.78;1.90;;;;;;;15.51;60.13;98802.88;4896672;29;20051;-75
2022/08/08 06:09:31;;;;;;;3.25;2.13;;;;;;;15.79;60.88;98808.50;4910326;29;20044;-74
2022/08/08 06:12:20;;;;;;;6.68;2.10;;;;;;;15.93;60.98;98806.88;4897399;29;20040;-75
2022/08/08 06:14:58;;;;;;;3.08;1.80;;;;;;;16.07;58.53;98810.63;4926085;29;20072;-75
2022/08/08 06:17:26;;;;;;;3.58;1.90;;;;;;;16.14;58.93;98809.75;4908788;29;20574;-74
2022/08/08 06:20:13;;;;;;;3.17;2.22;;;;;;;16.29;58.76;98812.41;4896889;29;20189;-75
2022/08/08 06:22:44;;;;;;;2.22;2.03;;;;;;;16.47;61.58;98817.41;4925052;29;20051;-75
2022/08/08 06:25:17;;;;;;;2.13;1.90;;;;;;;16.63;59.81;98816.41;4916142;29;20048;-75
2022/08/08 06:28:11;;;;;;;5.85;2.70;;;;;;;16.86;60.79;98819.03;4904016;29;20047;-75
2022/08/08 06:30:43;;;;;;;2.60;2.40;;;;;;;17.04;61.44;98824.00;4923792;29;20503;-74
2022/08/08 06:33:11;;;;;;;3.20;2.15;;;;;;;17.37;58.88;98821.72;4903475;29;20163;-75
2022/08/08 06:35:48;;;;;;;2.58;2.38;;;;;;;17.51;58.98;98828.06;4908926;29;20214;-76
2022/08/08 06:38:39;;;;;;;2.40;2.20;;;;;;;17.55;58.65;98823.97;4904667;29;20515;-74
2022/08/08 06:41:11;;;;;;;2.35;2.15;;;;;;;17.62;59.11;98824.06;4913131;29;20391;-74
2022/08/08 06:43:40;;;;;;;2.90;2.50;;;;;;;17.84;57.48;98836.44;4925488;29;20043;-75
2022/08/08 06:46:25;;;;;;;2.90;2.00;;;;;;;18.04;55.84;98833.13;4897506;29;20048;-75
2022/08/08 06:48:56;;;;;;;2.50;2.30;;;;;;;18.14;57.02;98839.81;4908476;29;20211;-74
2022/08/08 06:51:25;;;;;;;3.08;2.50;;;;;;;18.25;57.40;98829.63;4906212;29;20044;-75
2022/08/08 06:54:21;;;;;;;2.78;2.30;;;;;;;18.25;54.59;98833.13;4922140;29;20498;-75
2022/08/08 06:56:49;;;;;;;3.08;2.28;;;;;;;18.23;56.83;98835.16;4918547;29;20442;-75
2022/08/08 06:59:18;;;;;;;4.40;2.40;;;;;;;18.19;57.66;98840.06;4904827;29;20134;-74
2022/08/08 07:02:03;;;;;;;4.43;2.08;;;;;;;18.31;54.90;98835.00;4916900;29;20051;-75
2022/08/08 07:04:55;;;;;;;2.63;2.20;;;;;;;18.74;53.45;98839.41;4888152;29;20069;-76
2022/08/08 07:07:42;;;;;;;2.88;2.28;;;;;;;18.97;53.86;98831.94;4908187;29;20076;-75
2022/08/08 07:10:11;;;;;;;3.08;2.50;;;;;;;18.91;55.55;98845.34;4915415;29;20036;-75
2022/08/08 07:12:46;;;;;;;2.47;2.28;;;;;;;18.72;57.27;98844.13;4932131;29;20043;-75
2022/08/08 07:15:41;;;;;;;3.05;2.35;;;;;;;18.65;56.65;98838.75;4913859;29;20058;-75
2022/08/08 07:18:56;;;;;;;2.15;1.90;;;;;;;18.97;54.12;98839.19;4908172;29;20106;-75
2022/08/08 07:21:28;;;;;;;2.83;1.95;;;;;;;18.94;55.84;98840.41;4911897;29;20047;-74
2022/08/08 07:24:00;;;;;;;1.95;1.85;;;;;;;19.14;54.31;98842.34;4914939;29;20048;-74
2022/08/08 07:26:53;;;;;;;1.80;1.70;;;;;;;19.29;52.89;98840.34;4934336;29;20526;-74
2022/08/08 07:29:22;;;;;;;3.60;1.98;;;;;;;19.45;52.78;98833.81;4921744;29;20055;-74
2022/08/08 07:32:11;;;;;;;1.85;1.67;;;;;;;19.38;53.23;98830.25;4905791;29;21762;-74
2022/08/08 07:34:44;;;;;;;2.67;2.10;;;;;;;19.58;55.02;98830.34;4916107;29;20047;-74
2022/08/08 07:37:30;;;;;;;5.13;2.58;;;;;;;19.49;53.58;98833.19;4901265;29;20050;-73
2022/08/08 07:40:20;;;;;;;3.53;2.40;;;;;;;19.59;53.86;98831.97;4896020;29;20091;-73
2022/08/08 07:43:01;;;;;;;3.75;1.98;;;;;;;19.62;55.11;98837.78;4909547;29;20696;-74
2022/08/08 07:45:36;;;;;;;3.08;2.00;;;;;;;19.90;55.10;98836.81;4902471;29;20044;-74
2022/08/08 07:48:27;;;;;;;3.22;2.20;;;;;;;20.20;53.67;98836.44;4897485;29;20486;-75
2022/08/08 07:50:59;;;;;;;3.47;2.78;;;;;;;20.68;50.81;98844.28;4921004;29;20047;-74
2022/08/08 07:53:44;;;;;;;2.55;2.35;;;;;;;21.02;48.78;98841.31;4898174;29;20046;-74
2022/08/08 07:56:35;;;;;;;3.45;2.25;;;;;;;20.98;49.97;98845.44;4901488;29;20059;-74
2022/08/08 07:59:11;;;;;;;4.95;2.45;;;;;;;20.72;53.19;98842.81;4913324;29;20122;-74
2022/08/08 08:01:56;;;;;;;2.17;1.95;;;;;;;20.78;49.94;98848.19;4882747;29;20166;-74
2022/08/08 08:04:45;;;;;;;2.28;2.00;;;;;;;21.07;48.92;98845.25;4924355;29;20036;-74
2022/08/08 08:07:21;;;;;;;3.67;2.10;;;;;;;21.50;49.24;98853.56;4908333;29;20048;-75
2022/08/08 08:10:01;;;;;;;3.53;2.13;;;;;;;21.91;47.60;98855.00;4899753;29;20135;-74
2022/08/08 08:12:30;;;;;;;4.80;2.00;;;;;;;21.43;49.97;98852.78;4908696;29;20509;-74
2022/08/08 08:15:11;;;;;;;2.40;2.15;;;;;;;21.52;49.65;98856.06;4921410;29;20044;-75
2022/08/08 08:17:44;;;;;;;4.28;2.10;;;;;;;21.67;47.60;98854.75;4903010;29;20174;-74
2022/08/08 08:20:17;;;;;;;2.22;2.03;;;;;;;22.13;47.66;98856.28;4891570;29;20056;-74
2022/08/08 08:22:45;;;;;;;2.75;1.70;;;;;;;22.50;46.29;98858.31;4905761;29;20447;-73
2022/08/08 08:25:13;;;;;;;2.45;1.85;;;;;;;22.24;47.85;98849.41;4893141;29;20527;-74
2022/08/08 08:27:59;;;;;;;3.60;1.92;;;;;;;22.72;46.66;98854.19;4895558;29;20047;-74
2022/08/08 08:30:28;;;;;;;3.15;2.08;;;;;;;23.12;45.51;98851.06;4919219;29;20525;-74
2022/08/08 08:32:55;;;;;;;2.88;1.90;;;;;;;23.08;44.76;98855.25;4906829;29;20040;-74
2022/08/08 08:35:24;;;;;;;2.08;1.70;;;;;;;;;;4924234;29;20090;-74
2022/08/08 08:38:12;;;;;;;3.95;2.28;;;;;;;22.83;45.45;98849.91;4904557;29;20071;-74
2022/08/08 08:40:49;;;;;;;3.13;2.00;;;;;;;22.55;47.69;98858.47;4921243;29;20510;-74
2022/08/08 08:43:19;;;;;;;2.20;1.88;;;;;;;22.83;47.01;98854.47;4922908;29;20043;-74
2022/08/08 08:45:59;;;;;;;2.10;1.90;;;;;;;23.56;43.63;98853.63;4937782;29;20035;-74
2022/08/08 08:48:33;;;;;;;2.10;2.00;;;;;;;23.61;43.66;98851.91;4901766;29;20036;-73
2022/08/08 08:51:04;;;;;;;2.47;2.00;;;;;;;23.96;44.16;98842.28;4903701;29;20040;-74
2022/08/08 08:53:36;;;;;;;4.15;2.35;;;;;;;23.65;46.31;98849.59;4936173;29;20063;-74
2022/08/08 08:56:27;;;;;;;3.22;2.08;;;;;;;23.82;45.05;98839.78;4925510;29;20409;-75
2022/08/08 08:59:06;;;;;;;2.20;1.83;;;;;;;24.02;45.25;98842.22;4935011;29;20048;-73
2022/08/08 09:01:48;;;;;;;5.97;2.30;;;;;;;24.41;41.68;98839.91;4899366;29;20051;-74
2022/08/08 09:04:25;;;;;;;2.83;2.15;;;;;;;23.70;43.54;98841.63;4916484;29;20076;-74
2022/08/08 09:07:02;;;;;;;2.60;2.40;;;;;;;24.00;43.25;98848.91;4919802;29;20043;-74
2022/08/08 09:09:42;;;;;;;3.22;2.38;;;;;;;23.51;44.58;98842.69;4898717;29;20121;-73
2022/08/08 09:12:22;;;;;;;2.88;2.35;;;;;;;23.49;44.78;98842.13;4893780;29;20061;-73
2022/08/08 09:14:52;;;;;;;8.07;2.28;;;;;;;24.15;43.13;98838.47;4895695;29;20047;-74
2022/08/08 09:17:24;;;;;;;;;;;;;;;24.78;40.23;98831.59;4909127;29;20577;-73
2022/08/08 09:20:09;;;;;;;2.53;1.90;;;;;;;25.23;40.19;98836.38;4898243;29;21804;-73
2022/08/08 09:22:57;;;;;;;3.92;1.90;;;;;;;25.03;41.16;98831.31;4891961;29;20060;-74
2022/08/08 09:25:25;;;;;;;3.90;2.15;;;;;;;24.68;42.10;98837.59;4903492;29;20073;-74
2022/08/08 09:28:13;;;;;;;3.75;2.08;;;;;;;24.94;42.34;98830.88;4924869;29;20042;-74
2022/08/08 09:31:05;;;;;;;1.92;1.63;;;;;;;25.16;39.57;98831.06;4911571;29;20042;-75
2022/08/08 09:33:41;;;;;;;2.78;2.28;;;;;;;24.60;40.82;98832.53;4890591;29;20076;-75
2022/08/08 09:36:28;;;;;;;2.95;2.10;;;;;;;24.59;42.43;98830.88;4890697;29;20813;-75
2022/08/08 09:38:58;;;;;;;3.10;1.90;;;;;;;24.67;41.06;98830.56;4889249;29;20052;-74
2022/08/08 09:41:37;;;;;;;3.78;2.17;;;;;;;24.48;40.20;98824.41;4922690;29;20055;-74
2022/08/08 09:44:46;;;;;;;3.25;2.55;;;;;;;24.98;41.78;98826.59;4915170;29;20036;-73
2022/08/08 09:47:14;;;;;;;1.95;1.85;;;;;;;24.84;41.65;98827.13;4926302;29;20051;-74
2022/08/08 09:50:09;;;;;;;5.13;2.03;;;;;;;25.39;40.50;98822.06;4921308;29;20573;-73
2022/08/08 09:52:42;;;;;;;3.45;2.30;;;;;;;25.53;38.65;98824.50;4922004;29;20074;-73
2022/08/08 09:55:25;;;;;;;2.00;1.88;;;;;;;25.83;38.47;98819.63;4909800;29;20050;-75
2022/08/08 09:58:17;;;;;;;2.97;2.00;;;;;;;25.42;39.62;98822.66;4920566;29;20048;-74
2022/08/08 10:01:00;;;;;;;8.40;2.13;;;;;;;24.59;42.22;98824.66;4920604;29;20860;-74
2022/08/08 10:03:40;;;;;;;1.85;1.75;;;;;;;24.61;41.55;98820.66;4910412;29;20051;-73
2022/08/08 10:06:13;;;;;;;2.13;1.83;;;;;;;25.09;40.70;98814.13;4918437;29;20410;-74
2022/08/08 10:08:48;;;;;;;2.20;1.40;;;;;;;25.70;37.72;98805.56;4923037;29;20048;-74
2022/08/08 10:11:19;;;;;;;2.70;1.65;;;;;;;25.75;36.81;98806.50;4926064;29;20103;-74
2022/08/08 10:14:06;;;;;;;2.72;1.40;;;;;;;25.17;36.67;98811.09;4929714;29;20062;-74
2022/08/08 10:16:54;;;;;;;3.92;2.33;;;;;;;25.16;36.82;98801.28;4917415;29;20049;-74
2022/08/08 10:19:33;;;;;;;1.45;1.35;;;;;;;25.78;35.52;98813.31;4921197;29;20052;-73
2022/08/08 10:22:21;;;;;;;5.30;1.52;;;;;;;25.34;38.36;98808.44;4925337;29;21050;-74
2022/08/08 10:24:54;;;;;;;3.65;1.50;;;;;;;25.45;37.65;98797.78;4934106;29;20122;-74
2022/08/08 10:27:27;;;;;;;2.30;1.55;;;;;;;26.01;34.27;98796.09;4913838;29;20115;-74
2022/08/08 10:30:01;;;;;;;1.92;1.40;;;;;;;26.21;33.90;98801.03;4904589;29;20467;-74
2022/08/08 10:32:37;;;;;;;1.50;1.40;;;;;;;26.38;35.64;98795.59;4930814;29;20411;-72
2022/08/08 10:35:15;;;;;;;2.53;1.98;;;;;;;26.10;35.22;98793.81;4926707;29;20107;-73
2022/08/08 10:38:04;;;;;;;2.65;1.30;;;;;;;26.54;35.18;98797.50;4921300;29;20051;-73
2022/08/08 10:40:36;;;;;;;2.15;1.52;;;;;;;27.10;32.10;98790.09;4909613;29;20558;-73
2022/08/08 10:43:04;;;;;;;1.50;1.23;;;;;;;26.83;34.55;98790.03;4925569;29;20119;-72
2022/08/08 10:45:45;;;;;;;2.75;1.70;;;;;;;26.53;33.14;98784.19;4930480;29;20564;-73
2022/08/08 10:48:33;;;;;;;1.42;1.30;;;;;;;26.55;32.87;98784.75;4925399;29;20126;-73
2022/08/08 10:51:38;;;;;;;2.50;1.23;;;;;;;26.71;34.18;98786.63;4926376;29;20056;-73
2022/08/08 10:54:06;;;;;;;1.40;1.30;;;;;;;26.83;32.44;98784.63;4930268;29;20126;-73
2022/08/08 10:56:36;;;;;;;4.88;1.38;;;;;;;26.58;32.92;98790.50;4927415;29;20056;-73
2022/08/08 10:59:09;;;;;;;2.22;1.20;;;;;;;26.83;32.00;98779.19;4933787;29;20119;-73
2022/08/08 11:01:44;;;;;;;2.27;1.20;;;;;;;26.58;32.24;98779.66;4928249;29;20051;-73
2022/08/08 11:04:15;;;;;;;1.50;1.30;;;;;;;26.36;33.25;98779.59;4928341;29;20287;-73
2022/08/08 11:06:41;;;;;;;1.52;1.42;;;;;;;26.62;31.11;98778.09;4928221;29;20064;-72
2022/08/08 11:09:15;;;;;;;2.42;1.35;;;;;;;26.31;31.70;98782.22;4910505;29;20080;-72
2022/08/08 11:11:47;;;;;;;2.70;1.30;;;;;;;25.82;31.94;98773.78;4931838;29;20058;-73
2022/08/08 11:14:34;;;;;;;1.40;1.27;;;;;;;25.44;33.92;98777.19;4926090;29;20040;-73
2022/08/08 11:17:02;;;;;;;3.90;1.45;;;;;;;25.35;33.04;98772.13;4923539;29;20047;-73
2022/08/08 11:19:32;;;;;;;1.80;1.27;;;;;;;25.08;36.08;98774.56;4905147;29;20139;-73
2022/08/08 11:22:00;;;;;;;1.20;1.10;;;;;;;25.16;32.97;98771.50;4925567;29;20040;-73
2022/08/08 11:24:32;;;;;;;3.00;1.67;;;;;;;25.01;35.92;98767.66;4916111;29;20130;-72
2022/08/08 11:27:02;;;;;;;3.55;1.60;;;;;;;25.24;36.49;98764.91;4924389;29;20043;-73
2022/08/08 11:29:50;;;;;;;2.75;1.50;;;;;;;25.91;32.71;98758.81;4920466;29;20126;-73
2022/08/08 11:32:39;;;;;;;3.13;1.63;;;;;;;26.17;32.23;98762.75;4914610;29;20454;-73
2022/08/08 11:35:10;;;;;;;2.13;1.40;;;;;;;26.15;32.13;98761.38;4925602;29;20131;-73
2022/08/08 11:37:57;;;;;;;1.40;1.30;;;;;;;26.25;33.65;98761.50;4917857;29;20052;-73
2022/08/08 11:40:45;;;;;;;1.80;1.42;;;;;;;26.62;32.72;98753.66;4933183;29;20051;-74
2022/08/08 11:43:19;;;;;;;1.45;1.23;;;;;;;26.98;32.43;98764.16;4916515;29;20036;-73
2022/08/08 11:45:52;;;;;;;1.90;1.60;;;;;;;26.94;30.38;98761.13;4908333;29;20078;-74
2022/08/08 11:48:39;;;;;;;1.40;1.30;;;;;;;27.12;30.99;98749.94;4920348;29;20499;-73
2022/08/08 11:51:08;;;;;;;1.85;1.02;;;;;;;26.91;30.04;98754.31;4929546;29;20078;-73
2022/08/08 11:53:54;;;;;;;2.67;2.03;;;;;;;26.99;29.79;98749.47;4916035;29;20043;-74
2022/08/08 11:56:32;;;;;;;3.13;1.60;;;;;;;26.55;33.73;98747.59;4924452;29;20532;-73
2022/08/08 11:59:10;;;;;;;1.75;1.30;;;;;;;26.77;31.03;98753.03;4923130;29;20054;-73
2022/08/08 12:01:37;;;;;;;1.55;1.40;;;;;;;26.73;30.94;98751.09;4908198;29;20051;-73
2022/08/08 12:04:05;;;;;;;2.03;1.30;;;;;;;26.74;31.41;98752.72;4923149;29;20920;-75
2022/08/08 12:06:32;;;;;;;1.58;1.42;;;;;;;26.82;30.36;98755.81;4903710;29;20554;-74
2022/08/08 12:09:09;;;;;;;1.27;1.15;;;;;;;26.79;30.02;98747.34;4925238;29;20044;-74
2022/08/08 12:11:44;;;;;;;3.17;1.63;;;;;;;26.71;29.27;98746.72;4906060;29;20051;-74
2022/08/08 12:14:22;;;;;;;2.72;1.40;;;;;;;26.12;33.26;98727.44;4924107;29;20051;-74
2022/08/08 12:16:55;;;;;;;1.38;1.20;;;;;;;26.10;32.10;98721.41;4927642;29;20036;-74
2022/08/08 12:19:24;;;;;;;1.92;1.60;;;;;;;26.36;31.23;98729.94;4921471;29;20047;-74
2022/08/08 12:22:05;;;;;;;1.63;1.30;;;;;;;26.36;31.33;98725.31;4922739;29;20040;-74
2022/08/08 12:24:44;;;;;;;2.65;1.40;;;;;;;26.68;30.93;98730.13;4930844;29;20087;-74
2022/08/08 12:27:22;;;;;;;2.10;1.65;;;;;;;26.44;32.28;98732.22;4914277;29;20067;-74
2022/08/08 12:30:01;;;;;;;5.05;1.20;;;;;;;25.74;34.86;98731.66;4923625;29;20079;-73
2022/08/08 12:32:43;;;;;;;1.55;1.30;;;;;;;26.19;30.57;98719.91;4910821;29;20048;-75
2022/08/08 12:35:21;;;;;;;9.27;1.67;;;;;;;26.33;29.95;98731.25;4927389;29;20055;-75
2022/08/08 12:38:06;;;;;;;2.60;1.30;;;;;;;26.55;29.55;98722.34;4927270;29;20107;-74
2022/08/08 12:40:40;;;;;;;1.30;0.90;;;;;;;26.71;29.24;98722.28;4922492;29;20515;-73
2022/08/08 12:43:34;;;;;;;2.13;1.15;;;;;;;26.34;30.40;98715.78;4929892;29;20399;-73
2022/08/08 12:46:21;;;;;;;2.05;1.40;;;;;;;26.44;31.30;98722.19;4918421;29;20051;-74
2022/08/08 12:49:00;;;;;;;1.55;1.20;;;;;;;26.54;31.21;98710.69;4912887;29;20046;-74